Time;durP1;ratioP1;P1;durP2;ratioP2;P2;SDS_P1;SDS_P2;PMS_P1;PMS_P2;Temp;Humidity;BMP_temperature;BMP_pressure;BME280_temperature;BME280_humidity;BME280_pressure;Samples;Min_cycle;Max_cycle;Signal;HPM_P1;HPM_P2
2021/06/10 00:02:23;;;;;;;23.25;15.48;;;16.70;99.90;;;;;;5049878;28;20382;-49
2021/06/10 00:04:49;;;;;;;23.17;14.43;;;16.80;99.90;;;;;;5049951;28;20440;-49
2021/06/10 00:07:16;;;;;;;20.48;15.10;;;16.70;99.90;;;;;;5049770;28;20386;-50
2021/06/10 00:09:43;;;;;;;22.70;15.52;;;16.60;99.90;;;;;;5050644;28;20429;-49
2021/06/10 00:12:11;;;;;;;21.35;15.43;;;16.50;99.90;;;;;;5049862;28;20388;-47
2021/06/10 00:14:38;;;;;;;20.55;14.50;;;16.50;99.90;;;;;;5050431;28;20457;-48
2021/06/10 00:17:04;;;;;;;20.42;14.80;;;16.50;99.90;;;;;;5048565;28;20507;-48
2021/06/10 00:19:29;;;;;;;20.77;13.83;;;16.50;99.90;;;;;;5050009;28;20863;-49
2021/06/10 00:21:55;;;;;;;21.10;14.93;;;16.50;99.90;;;;;;5050677;28;20431;-49
2021/06/10 00:24:21;;;;;;;20.63;15.03;;;16.50;99.90;;;;;;5049588;28;20484;-48
2021/06/10 00:26:47;;;;;;;21.38;14.52;;;16.50;99.90;;;;;;5050173;28;20500;-51
2021/06/10 00:29:12;;;;;;;21.75;15.73;;;16.50;99.90;;;;;;5049708;28;20723;-49
2021/06/10 00:31:38;;;;;;;20.63;15.20;;;16.50;99.90;;;;;;5050365;28;20914;-49
2021/06/10 00:34:04;;;;;;;21.92;15.25;;;16.50;99.90;;;;;;5049659;28;20397;-49
2021/06/10 00:36:30;;;;;;;22.73;15.60;;;16.40;99.90;;;;;;5050201;28;20385;-49
2021/06/10 00:38:56;;;;;;;21.90;15.85;;;16.30;99.90;;;;;;5050112;28;20461;-49
2021/06/10 00:41:22;;;;;;;23.77;16.73;;;16.30;99.90;;;;;;5049909;28;20468;-51
2021/06/10 00:43:48;;;;;;;27.83;18.20;;;16.30;99.90;;;;;;5049956;28;20385;-50
2021/06/10 00:46:14;;;;;;;24.83;16.88;;;16.40;99.90;;;;;;5050818;28;20718;-49
2021/06/10 00:48:39;;;;;;;26.20;17.40;;;16.40;99.90;;;;;;5064785;28;20376;-49
2021/06/10 00:51:07;;;;;;;24.77;16.52;;;16.40;99.90;;;;;;5059041;28;20627;-49
2021/06/10 00:53:34;;;;;;;22.67;16.85;;;16.40;99.90;;;;;;5049922;28;20392;-49
2021/06/10 00:56:01;;;;;;;22.23;15.70;;;16.30;99.90;;;;;;5049410;28;20377;-53
2021/06/10 00:58:28;;;;;;;23.25;15.25;;;16.00;99.90;;;;;;5049340;28;20464;-49
2021/06/10 01:00:55;;;;;;;21.30;14.90;;;16.00;99.90;;;;;;5046699;28;20962;-50
2021/06/10 01:03:21;;;;;;;21.52;14.80;;;16.00;99.90;;;;;;5048503;28;20382;-49
2021/06/10 01:05:57;;;;;;;20.60;14.63;;;16.00;99.90;;;;;;5049702;28;20409;-49
2021/06/10 01:08:44;;;;;;;23.33;14.88;;;15.90;99.90;;;;;;5048956;28;20758;-49
2021/06/10 01:11:36;;;;;;;21.45;15.88;;;15.80;99.90;;;;;;5047622;28;20546;-51
2021/06/10 01:14:22;;;;;;;24.67;17.05;;;15.70;99.90;;;;;;5040409;28;20483;-52
2021/06/10 01:16:48;;;;;;;23.30;15.80;;;15.80;99.90;;;;;;5049324;28;20385;-49
2021/06/10 01:19:35;;;;;;;22.73;15.57;;;15.80;99.90;;;;;;5048817;28;20469;-49
2021/06/10 01:22:05;;;;;;;21.95;16.55;;;15.90;99.90;;;;;;5049205;28;20894;-52
2021/06/10 01:24:47;;;;;;;26.85;17.77;;;16.00;99.90;;;;;;5060931;28;20402;-49
2021/06/10 01:27:19;;;;;;;28.27;18.20;;;16.00;99.90;;;;;;5068590;28;20380;-49
2021/06/10 01:29:48;;;;;;;24.42;16.10;;;16.10;99.90;;;;;;5069483;28;20695;-50
2021/06/10 01:32:14;;;;;;;24.65;16.27;;;16.00;99.90;;;;;;5068461;28;20470;-49
2021/06/10 01:34:41;;;;;;;28.33;18.88;;;16.00;99.90;;;;;;5069247;28;20411;-49
2021/06/10 01:37:07;;;;;;;22.90;16.25;;;15.90;99.90;;;;;;5068457;28;20749;-49
2021/06/10 01:39:33;;;;;;;27.13;17.50;;;15.90;99.90;;;;;;5069214;28;20368;-48
2021/06/10 01:41:59;;;;;;;26.35;17.13;;;15.90;99.90;;;;;;5069327;28;20408;-53
2021/06/10 01:44:27;;;;;;;24.08;17.10;;;15.90;99.90;;;;;;5068522;28;20444;-48
2021/06/10 01:46:53;;;;;;;25.73;17.58;;;15.90;99.90;;;;;;5069184;28;20899;-49
2021/06/10 01:49:20;;;;;;;25.05;17.83;;;15.90;99.90;;;;;;5068314;28;20917;-49
2021/06/10 01:51:47;;;;;;;29.30;18.33;;;16.00;99.90;;;;;;5069024;28;20420;-49
2021/06/10 01:54:15;;;;;;;26.50;16.83;;;15.90;99.90;;;;;;5068285;28;20460;-49
2021/06/10 01:56:43;;;;;;;24.88;17.80;;;15.90;99.90;;;;;;5068025;28;20394;-50
2021/06/10 01:59:09;;;;;;;25.67;17.70;;;15.80;99.90;;;;;;5067954;28;20849;-48
2021/06/10 02:01:36;;;;;;;27.85;19.33;;;15.90;99.90;;;;;;5068968;28;20429;-48
2021/06/10 02:04:03;;;;;;;29.80;19.75;;;15.90;99.90;;;;;;5068454;28;20885;-52
2021/06/10 02:06:31;;;;;;;28.43;18.77;;;15.90;99.90;;;;;;5068409;28;20430;-49
2021/06/10 02:08:58;;;;;;;27.15;19.20;;;15.80;99.90;;;;;;5069162;28;20828;-48
2021/06/10 02:11:25;;;;;;;27.75;19.67;;;15.90;99.90;;;;;;5068203;28;20451;-49
2021/06/10 02:13:51;;;;;;;28.10;19.30;;;15.90;99.90;;;;;;5068920;28;20418;-48
2021/06/10 02:16:18;;;;;;;29.30;20.70;;;15.90;99.90;;;;;;5068341;28;20465;-49
2021/06/10 02:18:46;;;;;;;30.15;20.20;;;15.90;99.90;;;;;;5068888;28;20445;-49
2021/06/10 02:21:13;;;;;;;26.67;18.00;;;15.90;99.90;;;;;;5067939;28;20384;-49
2021/06/10 02:23:41;;;;;;;30.80;21.38;;;15.80;99.90;;;;;;5068821;28;20449;-50
2021/06/10 02:26:07;;;;;;;30.10;20.10;;;15.70;99.90;;;;;;5068128;28;20439;-49
2021/06/10 02:28:35;;;;;;;30.57;19.60;;;15.70;99.90;;;;;;5069899;28;20383;-48
2021/06/10 02:31:03;;;;;;;28.15;19.10;;;15.60;99.90;;;;;;5071777;28;20386;-53
2021/06/10 02:33:29;;;;;;;26.98;18.73;;;15.60;99.90;;;;;;5072190;28;20384;-50
2021/06/10 02:35:55;;;;;;;27.57;18.80;;;15.60;99.90;;;;;;5072286;28;20487;-49
2021/06/10 02:38:22;;;;;;;27.50;18.70;;;15.60;99.90;;;;;;5071291;28;20473;-49
2021/06/10 02:40:51;;;;;;;32.05;20.92;;;15.60;99.90;;;;;;5071913;28;20426;-50
2021/06/10 02:43:18;;;;;;;29.25;19.00;;;15.50;99.90;;;;;;5071392;28;20795;-49
2021/06/10 02:45:45;;;;;;;30.98;20.13;;;15.40;99.90;;;;;;5071889;28;20414;-49
2021/06/10 02:48:12;;;;;;;30.00;19.98;;;15.40;99.90;;;;;;5070957;28;20465;-50
2021/06/10 02:50:40;;;;;;;36.60;21.20;;;15.50;99.90;;;;;;5072137;28;20874;-49
2021/06/10 02:53:08;;;;;;;30.88;19.08;;;15.50;99.90;;;;;;5071141;28;20473;-49
2021/06/10 02:55:36;;;;;;;27.70;19.48;;;15.50;99.90;;;;;;5072000;28;20377;-49
2021/06/10 02:58:03;;;;;;;33.78;21.10;;;15.50;99.90;;;;;;5071625;28;20482;-53
2021/06/10 03:00:32;;;;;;;31.70;21.47;;;15.50;99.90;;;;;;5071343;28;20391;-48
2021/06/10 03:03:00;;;;;;;32.17;19.63;;;15.50;99.90;;;;;;5071765;28;20414;-49
2021/06/10 03:05:27;;;;;;;30.60;19.60;;;15.50;99.90;;;;;;5071153;28;20426;-49
2021/06/10 03:07:54;;;;;;;31.95;20.38;;;15.30;99.90;;;;;;5071495;28;20375;-48
2021/06/10 03:10:23;;;;;;;30.73;20.60;;;15.40;99.90;;;;;;5070944;28;20441;-48
2021/06/10 03:12:49;;;;;;;30.03;20.10;;;15.40;99.90;;;;;;5061218;28;20376;-48
2021/06/10 03:15:15;;;;;;;27.20;19.08;;;15.30;99.90;;;;;;5050974;28;20385;-48
2021/06/10 03:17:42;;;;;;;25.95;18.27;;;15.20;99.90;;;;;;5051570;28;20389;-49
2021/06/10 03:20:09;;;;;;;27.83;18.13;;;15.30;99.90;;;;;;5050787;28;20377;-48
2021/06/10 03:22:35;;;;;;;26.70;18.00;;;15.30;99.90;;;;;;5051596;28;20728;-50
2021/06/10 03:25:04;;;;;;;24.27;17.50;;;15.40;99.90;;;;;;5051762;28;20416;-49
2021/06/10 03:27:32;;;;;;;31.63;19.23;;;15.40;99.90;;;;;;5051025;28;20428;-49
2021/06/10 03:30:00;;;;;;;25.13;17.70;;;15.40;99.90;;;;;;5051061;28;20381;-48
2021/06/10 03:32:28;;;;;;;24.52;17.02;;;15.40;99.90;;;;;;5050251;28;20381;-48
2021/06/10 03:34:55;;;;;;;26.15;16.88;;;15.30;99.90;;;;;;5051365;28;20482;-48
2021/06/10 03:37:22;;;;;;;25.65;17.00;;;15.40;99.90;;;;;;5050568;28;20472;-50
2021/06/10 03:39:50;;;;;;;22.92;16.50;;;15.50;99.90;;;;;;5050848;28;20813;-49
2021/06/10 03:42:18;;;;;;;22.77;15.75;;;15.50;99.90;;;;;;5050008;28;20431;-48
2021/06/10 03:44:44;;;;;;;22.42;14.98;;;15.30;99.90;;;;;;5050639;28;20389;-49
2021/06/10 03:47:12;;;;;;;20.13;14.33;;;15.30;99.90;;;;;;5050467;28;20472;-48
2021/06/10 03:49:38;;;;;;;21.30;15.77;;;15.20;99.90;;;;;;5050447;28;20393;-48
2021/06/10 03:52:04;;;;;;;21.08;15.63;;;15.30;99.90;;;;;;5050341;28;20493;-51
2021/06/10 03:54:31;;;;;;;22.23;15.63;;;15.20;99.90;;;;;;5049574;28;20473;-50
2021/06/10 03:56:56;;;;;;;20.27;14.90;;;15.30;99.90;;;;;;5047363;28;20401;-49
2021/06/10 03:59:22;;;;;;;22.10;14.90;;;15.40;99.90;;;;;;5049366;28;20386;-49
2021/06/10 04:01:48;;;;;;;20.60;14.80;;;15.30;99.90;;;;;;5050377;28;20758;-48
2021/06/10 04:04:14;;;;;;;20.95;14.65;;;15.30;99.90;;;;;;5048886;28;20401;-48
2021/06/10 04:06:40;;;;;;;19.42;14.73;;;15.50;99.90;;;;;;5050527;28;20466;-48
2021/06/10 04:09:09;;;;;;;20.05;14.20;;;15.50;99.90;;;;;;5049865;28;20377;-51
2021/06/10 04:11:37;;;;;;;21.90;14.60;;;15.40;99.90;;;;;;5050734;28;20408;-48
2021/06/10 04:14:04;;;;;;;24.65;15.02;;;15.40;99.90;;;;;;5050212;28;20434;-53
2021/06/10 04:16:29;;;;;;;22.67;13.95;;;15.50;99.90;;;;;;5049444;28;20381;-48
2021/06/10 04:18:55;;;;;;;21.20;14.50;;;15.60;99.90;;;;;;5050379;28;20733;-48
2021/06/10 04:21:21;;;;;;;18.98;14.02;;;15.60;99.90;;;;;;5049766;28;20396;-52
2021/06/10 04:23:47;;;;;;;20.00;14.90;;;15.70;99.90;;;;;;5050234;28;20386;-49
2021/06/10 04:26:14;;;;;;;19.65;14.60;;;15.60;99.90;;;;;;5049449;28;20747;-48
2021/06/10 04:28:40;;;;;;;21.67;14.57;;;15.70;99.90;;;;;;5050183;28;20997;-48
2021/06/10 04:31:06;;;;;;;19.77;13.52;;;15.90;99.90;;;;;;5054718;28;21197;-49
2021/06/10 04:33:32;;;;;;;19.60;13.90;;;15.90;99.90;;;;;;5053923;28;20400;-48
2021/06/10 04:35:57;;;;;;;18.10;14.02;;;15.90;99.90;;;;;;5065872;28;20785;-51
2021/06/10 04:38:23;;;;;;;20.90;13.70;;;17.00;99.90;;;;;;5053466;28;20414;-49
2021/06/10 04:40:49;;;;;;;19.47;14.63;;;16.20;99.90;;;;;;5070663;28;20406;-49
2021/06/10 04:43:15;;;;;;;19.20;14.00;;;16.40;99.90;;;;;;5057842;28;20761;-49
2021/06/10 04:45:40;;;;;;;21.23;13.55;;;16.70;99.90;;;;;;5049956;28;21048;-49
2021/06/10 04:48:06;;;;;;;18.47;13.93;;;17.00;99.90;;;;;;5055545;28;20390;-53
2021/06/10 04:50:34;;;;;;;17.25;13.43;;;17.30;99.90;;;;;;5050398;28;20387;-49
2021/06/10 04:53:00;;;;;;;18.70;13.00;;;17.60;99.90;;;;;;5049154;28;20395;-49
2021/06/10 04:55:26;;;;;;;18.67;13.68;;;17.80;99.90;;;;;;5048823;28;20374;-50
2021/06/10 04:57:52;;;;;;;17.70;13.00;;;18.10;99.90;;;;;;5049283;28;20736;-50
2021/06/10 05:00:18;;;;;;;17.85;13.38;;;18.80;99.90;;;;;;5050279;28;20824;-50
2021/06/10 05:02:43;;;;;;;17.20;13.00;;;19.70;99.90;;;;;;5053626;28;20395;-50
2021/06/10 05:05:10;;;;;;;18.17;12.70;;;20.60;99.90;;;;;;5050474;28;20423;-53
2021/06/10 05:07:35;;;;;;;17.83;11.65;;;21.40;99.90;;;;;;5049881;28;20421;-50
2021/06/10 05:10:02;;;;;;;18.42;12.90;;;22.30;99.90;;;;;;5050085;28;20429;-50
2021/06/10 05:12:28;;;;;;;17.70;13.27;;;22.50;99.90;;;;;;5051659;28;20445;-50
2021/06/10 05:14:53;;;;;;;17.17;13.17;;;22.70;99.90;;;;;;5055425;28;20754;-50
2021/06/10 05:17:19;;;;;;;17.60;13.07;;;22.90;99.90;;;;;;5050498;28;20389;-50
2021/06/10 05:19:45;;;;;;;18.83;14.27;;;23.50;99.90;;;;;;5061900;28;20381;-51
2021/06/10 05:22:10;;;;;;;19.30;13.67;;;24.00;99.90;;;;;;5056282;28;20444;-50
2021/06/10 05:24:36;;;;;;;18.67;14.00;;;24.30;99.90;;;;;;5061268;28;20442;-50
2021/06/10 05:27:02;;;;;;;15.00;12.25;;;24.60;99.90;;;;;;5063658;28;20384;-50
2021/06/10 05:29:27;;;;;;;18.65;12.73;;;24.80;99.90;;;;;;5065329;28;20442;-50
2021/06/10 05:31:54;;;;;;;16.05;12.50;;;25.10;99.90;;;;;;5057430;28;20519;-51
2021/06/10 05:34:20;;;;;;;16.52;13.30;;;25.60;99.90;;;;;;5066425;28;20403;-49
2021/06/10 05:36:46;;;;;;;16.17;12.45;;;25.80;99.90;;;;;;5059801;28;20393;-48
2021/06/10 05:39:11;;;;;;;16.07;12.60;;;26.30;99.90;;;;;;5056911;28;20884;-50
2021/06/10 05:41:37;;;;;;;15.47;12.97;;;27.00;99.90;;;;;;5054453;28;20378;-49
2021/06/10 05:44:03;;;;;;;14.73;12.40;;;26.80;99.90;;;;;;5049175;28;20802;-49
2021/06/10 05:46:29;;;;;;;15.82;13.13;;;27.00;99.90;;;;;;5056406;28;20423;-49
2021/06/10 05:48:55;;;;;;;16.63;12.30;;;27.10;99.90;;;;;;5059606;28;20462;-49
2021/06/10 05:51:21;;;;;;;16.10;13.37;;;27.30;99.90;;;;;;5046279;28;20499;-49
2021/06/10 05:53:46;;;;;;;16.00;12.20;;;27.80;99.90;;;;;;5046419;28;20755;-48
2021/06/10 05:56:12;;;;;;;16.60;12.00;;;27.90;99.90;;;;;;5048176;28;20413;-48
2021/06/10 05:58:38;;;;;;;16.03;11.47;;;28.10;99.90;;;;;;5048173;28;20791;-49
2021/06/10 06:01:03;;;;;;;15.40;12.60;;;28.80;99.90;;;;;;5048056;28;20911;-49
2021/06/10 06:03:32;;;;;;;16.00;12.93;;;28.90;99.90;;;;;;5048456;28;20920;-49
2021/06/10 06:05:58;;;;;;;16.08;12.30;;;28.10;99.90;;;;;;5052724;28;20899;-49
2021/06/10 06:08:24;;;;;;;15.30;12.00;;;28.20;99.90;;;;;;5051922;28;20450;-49
2021/06/10 06:10:52;;;;;;;16.27;11.53;;;28.20;99.90;;;;;;5055173;28;20382;-49
2021/06/10 06:13:24;;;;;;;14.73;11.20;;;28.30;99.90;;;;;;5062603;28;20389;-49
2021/06/10 06:15:59;;;;;;;14.85;11.63;;;27.90;99.90;;;;;;5067637;28;20395;-50
2021/06/10 06:18:24;;;;;;;14.90;11.30;;;27.30;99.90;;;;;;5070081;28;20877;-49
2021/06/10 06:20:52;;;;;;;15.10;11.43;;;27.30;99.90;;;;;;5057736;28;20433;-49
2021/06/10 06:23:18;;;;;;;13.70;11.13;;;27.90;99.90;;;;;;5059605;28;20407;-49
2021/06/10 06:25:43;;;;;;;13.83;11.93;;;27.80;99.90;;;;;;5059470;28;20826;-52
2021/06/10 06:28:09;;;;;;;12.30;10.20;;;27.40;99.90;;;;;;5051444;28;20893;-53
2021/06/10 06:30:35;;;;;;;13.70;10.27;;;27.70;99.90;;;;;;5061382;28;20458;-48
2021/06/10 06:33:00;;;;;;;13.30;10.07;;;27.30;99.90;;;;;;5064787;28;20930;-49
2021/06/10 06:35:26;;;;;;;12.90;9.40;;;27.70;99.90;;;;;;5061250;28;20407;-49
2021/06/10 06:37:52;;;;;;;13.50;9.80;;;28.10;99.90;;;;;;5058705;28;21863;-49
2021/06/10 06:40:20;;;;;;;12.70;8.47;;;27.90;99.90;;;;;;5053664;28;20390;-49
2021/06/10 06:42:45;;;;;;;10.87;8.70;;;28.60;99.90;;;;;;5058035;28;20505;-49
2021/06/10 06:45:11;;;;;;;11.57;8.67;;;28.60;99.90;;;;;;5051087;28;20508;-51
2021/06/10 06:47:37;;;;;;;11.30;9.10;;;29.00;99.90;;;;;;5070377;28;20392;-50
2021/06/10 06:50:03;;;;;;;11.73;8.40;;;29.60;99.90;;;;;;5072326;28;20409;-50
2021/06/10 06:52:29;;;;;;;10.75;8.40;;;29.90;98.60;;;;;;5071245;28;20419;-50
2021/06/10 06:54:55;;;;;;;13.43;9.67;;;29.80;97.50;;;;;;5071895;28;20400;-50
2021/06/10 06:57:20;;;;;;;12.82;8.82;;;29.90;97.40;;;;;;5070377;28;20391;-50
2021/06/10 06:59:46;;;;;;;11.73;8.98;;;29.60;98.90;;;;;;5071722;28;20384;-50
2021/06/10 07:02:12;;;;;;;11.50;9.10;;;30.00;98.00;;;;;;5031566;28;20737;-50
2021/06/10 07:04:37;;;;;;;10.73;8.50;;;30.50;97.50;;;;;;5036311;28;20925;-50
2021/06/10 07:07:03;;;;;;;13.17;9.20;;;31.30;95.70;;;;;;5052578;28;20399;-50
2021/06/10 07:09:29;;;;;;;11.27;8.70;;;31.20;93.40;;;;;;5071248;28;20540;-50
2021/06/10 07:11:54;;;;;;;13.50;10.23;;;30.80;94.00;;;;;;5057333;28;20515;-50
2021/06/10 07:14:20;;;;;;;14.83;10.30;;;29.80;94.90;;;;;;5061759;28;20386;-50
2021/06/10 07:16:46;;;;;;;15.23;12.30;;;29.30;95.90;;;;;;5058891;28;20473;-50
2021/06/10 07:19:11;;;;;;;11.77;8.77;;;29.20;97.10;;;;;;5056352;28;20423;-50
2021/06/10 07:21:42;;;;;;;12.20;9.20;;;30.10;96.30;;;;;;5050794;28;20387;-50
2021/06/10 07:24:08;;;;;;;12.10;9.07;;;30.90;94.10;;;;;;5052162;28;20400;-54
2021/06/10 07:26:33;;;;;;;11.80;9.70;;;31.40;93.00;;;;;;5055596;28;20426;-50
2021/06/10 07:28:59;;;;;;;13.40;10.83;;;31.60;91.10;;;;;;5050907;28;20415;-50
2021/06/10 07:31:24;;;;;;;13.70;10.80;;;31.10;91.70;;;;;;5052786;28;20476;-50
2021/06/10 07:33:50;;;;;;;15.65;13.20;;;30.30;92.70;;;;;;5064658;28;20411;-51
2021/06/10 07:36:16;;;;;;;12.77;10.63;;;30.00;94.00;;;;;;5052158;28;20472;-50
2021/06/10 07:38:41;;;;;;;14.25;12.70;;;29.70;94.30;;;;;;5050222;28;20404;-51
2021/06/10 07:41:07;;;;;;;15.40;11.32;;;29.50;94.80;;;;;;5050433;28;20413;-54
2021/06/10 07:43:33;;;;;;;15.68;11.68;;;29.70;95.50;;;;;;5050082;28;20384;-51
2021/06/10 07:45:59;;;;;;;15.70;12.00;;;30.10;95.40;;;;;;5050463;28;20798;-51
2021/06/10 07:48:29;;;;;;;13.10;10.95;;;30.60;94.30;;;;;;5050564;28;20851;-51
2021/06/10 07:50:54;;;;;;;14.65;11.48;;;31.50;93.20;;;;;;5050923;28;20472;-50
2021/06/10 07:53:20;;;;;;;15.25;13.00;;;31.70;92.10;;;;;;5050060;28;20473;-50
2021/06/10 07:55:46;;;;;;;16.48;14.18;;;31.20;91.60;;;;;;5050202;28;20389;-50
2021/06/10 07:58:12;;;;;;;15.63;12.93;;;30.70;93.20;;;;;;5049933;28;20392;-50
2021/06/10 08:00:37;;;;;;;19.55;14.85;;;30.30;93.60;;;;;;5050777;28;20422;-51
2021/06/10 08:03:03;;;;;;;18.58;15.75;;;29.90;93.60;;;;;;5050395;28;20778;-50
2021/06/10 08:05:30;;;;;;;18.67;14.20;;;30.00;93.70;;;;;;5049899;28;20457;-50
2021/06/10 08:07:55;;;;;;;16.50;14.50;;;29.70;95.90;;;;;;5050530;28;20731;-51
2021/06/10 08:10:22;;;;;;;17.70;15.38;;;29.60;95.00;;;;;;5049424;28;20400;-50
2021/06/10 08:12:48;;;;;;;18.67;14.60;;;29.70;94.70;;;;;;5050622;28;20508;-51
2021/06/10 08:15:14;;;;;;;17.85;14.95;;;30.00;95.80;;;;;;5050009;28;20461;-51
2021/06/10 08:17:40;;;;;;;19.00;15.18;;;31.10;93.30;;;;;;5050455;28;20381;-50
2021/06/10 08:20:09;;;;;;;16.40;14.00;;;31.40;92.70;;;;;;5050531;28;20370;-50
2021/06/10 08:22:34;;;;;;;17.10;14.40;;;31.10;92.90;;;;;;5050338;28;20388;-50
2021/06/10 08:25:00;;;;;;;18.50;14.88;;;31.00;93.10;;;;;;5049855;28;20417;-50
2021/06/10 08:27:26;;;;;;;17.85;14.60;;;31.30;93.40;;;;;;5048697;28;20414;-51
2021/06/10 08:29:51;;;;;;;16.92;13.85;;;31.80;92.60;;;;;;5050420;28;20528;-50
2021/06/10 08:32:17;;;;;;;17.67;14.40;;;31.20;92.90;;;;;;5049600;28;20378;-51
2021/06/10 08:34:43;;;;;;;17.50;13.80;;;30.60;93.50;;;;;;5050552;28;20862;-50
2021/06/10 08:37:08;;;;;;;18.40;15.30;;;30.80;93.80;;;;;;5049590;28;20434;-55
2021/06/10 08:39:34;;;;;;;18.00;15.10;;;30.80;93.50;;;;;;5050282;28;20854;-50
2021/06/10 08:42:00;;;;;;;17.40;15.18;;;30.70;93.20;;;;;;5049924;28;20389;-51
2021/06/10 08:44:26;;;;;;;16.30;13.80;;;32.40;91.10;;;;;;5049343;28;20413;-51
2021/06/10 08:46:54;;;;;;;15.67;13.77;;;33.70;89.30;;;;;;5049528;28;20526;-50
2021/06/10 08:49:20;;;;;;;18.30;14.88;;;33.70;88.80;;;;;;5048921;28;20386;-48
2021/06/10 08:51:45;;;;;;;19.60;17.50;;;32.50;90.20;;;;;;5050290;28;20905;-50
2021/06/10 08:54:11;;;;;;;18.83;16.13;;;31.50;92.30;;;;;;5048926;28;20392;-55
2021/06/10 08:56:40;;;;;;;18.40;13.30;;;31.30;92.10;;;;;;5049312;28;20385;-51
2021/06/10 08:59:06;;;;;;;16.20;13.93;;;32.30;92.90;;;;;;5049282;28;20883;-49
2021/06/10 09:01:32;;;;;;;19.20;14.90;;;33.20;88.70;;;;;;5048941;28;20451;-48
2021/06/10 09:03:57;;;;;;;16.30;14.33;;;33.20;89.50;;;;;;5049174;28;20863;-48
2021/06/10 09:06:23;;;;;;;16.10;13.52;;;33.30;89.50;;;;;;5049309;28;20871;-48
2021/06/10 09:08:55;;;;;;;16.65;13.90;;;33.50;87.90;;;;;;5049187;28;20388;-48
2021/06/10 09:11:23;;;;;;;16.75;14.05;;;32.90;87.90;;;;;;5048769;28;20450;-48
2021/06/10 09:13:50;;;;;;;18.27;14.75;;;33.10;89.50;;;;;;5049398;28;20447;-49
2021/06/10 09:16:34;;;;;;;20.05;15.82;;;32.40;89.30;;;;;;5048753;28;20713;-51
2021/06/10 09:19:12;;;;;;;16.27;13.90;;;31.80;90.70;;;;;;5049683;28;20382;-49
2021/06/10 09:21:55;;;;;;;17.58;14.45;;;32.80;90.50;;;;;;5049714;28;20381;-50
2021/06/10 09:24:28;;;;;;;16.83;14.63;;;32.90;88.00;;;;;;5047868;28;20527;-50
2021/06/10 09:27:03;;;;;;;16.38;14.40;;;32.70;86.90;;;;;;5054276;28;20420;-49
2021/06/10 09:29:44;;;;;;;17.38;15.00;;;32.30;88.40;;;;;;5057433;28;20393;-48
2021/06/10 09:32:22;;;;;;;17.05;14.52;;;32.40;86.90;;;;;;5055050;28;20780;-53
2021/06/10 09:34:56;;;;;;;23.85;21.75;;;32.70;87.60;;;;;;5057771;28;20818;-48
2021/06/10 09:37:28;;;;;;;20.30;18.30;;;31.90;90.50;;;;;;5057315;28;20482;-53
2021/06/10 09:39:55;;;;;;;21.95;15.77;;;31.80;90.70;;;;;;5059501;28;20397;-51
2021/06/10 09:42:33;;;;;;;18.33;16.43;;;32.50;89.40;;;;;;5061288;28;20387;-51
2021/06/10 09:45:00;;;;;;;18.27;16.37;;;32.30;89.20;;;;;;5056896;28;20415;-51
2021/06/10 09:47:32;;;;;;;19.58;17.48;;;32.10;88.10;;;;;;5054745;28;20399;-48
2021/06/10 09:50:19;;;;;;;18.00;14.52;;;32.70;87.10;;;;;;5064274;28;20395;-49
2021/06/10 09:52:54;;;;;;;22.88;20.67;;;32.80;87.10;;;;;;5052842;28;20415;-51
2021/06/10 09:55:43;;;;;;;20.17;18.08;;;31.70;88.40;;;;;;5052049;28;20380;-51
2021/06/10 09:58:14;;;;;;;20.30;18.30;;;31.90;89.10;;;;;;5056272;28;20417;-51
2021/06/10 10:00:48;;;;;;;21.08;16.58;;;32.00;86.90;;;;;;5060866;28;20957;-51
2021/06/10 10:03:26;;;;;;;19.17;16.92;;;32.30;86.80;;;;;;5053910;28;20396;-51
2021/06/10 10:05:52;;;;;;;19.88;17.00;;;33.10;84.20;;;;;;5060355;28;20502;-48
2021/06/10 10:08:18;;;;;;;20.92;18.05;;;33.40;83.40;;;;;;5063853;28;20387;-49
2021/06/10 10:10:44;;;;;;;20.48;17.50;;;33.30;81.30;;;;;;5061428;28;20421;-49
2021/06/10 10:13:15;;;;;;;21.40;19.10;;;32.90;83.00;;;;;;5061483;28;20385;-53
2021/06/10 10:15:41;;;;;;;22.08;17.77;;;33.30;78.70;;;;;;5062246;28;20433;-49
2021/06/10 10:18:07;;;;;;;22.23;19.93;;;32.80;81.00;;;;;;5054729;28;20455;-49
2021/06/10 10:20:33;;;;;;;21.30;19.10;;;32.70;80.90;;;;;;5055544;28;20381;-50
2021/06/10 10:23:00;;;;;;;23.23;19.88;;;32.90;80.80;;;;;;5058676;28;20396;-50
2021/06/10 10:25:26;;;;;;;20.38;17.20;;;32.70;84.40;;;;;;5063507;28;20896;-52
2021/06/10 10:27:52;;;;;;;19.05;16.85;;;32.90;84.20;;;;;;5053873;28;20412;-51
2021/06/10 10:30:20;;;;;;;20.47;17.93;;;33.10;82.50;;;;;;5060219;28;20855;-50
2021/06/10 10:32:47;;;;;;;22.98;19.08;;;32.90;82.30;;;;;;5053307;28;20391;-51
2021/06/10 10:35:22;;;;;;;19.95;17.85;;;32.40;84.10;;;;;;5056208;28;20416;-54
2021/06/10 10:37:49;;;;;;;23.65;21.05;;;31.80;88.20;;;;;;5053964;28;20873;-50
2021/06/10 10:40:27;;;;;;;21.52;18.60;;;31.10;90.20;;;;;;5071636;28;20868;-55
2021/06/10 10:42:55;;;;;;;21.95;19.25;;;30.80;92.70;;;;;;5036788;28;20401;-50
2021/06/10 10:45:25;;;;;;;23.50;20.90;;;30.40;92.00;;;;;;5066081;28;20490;-52
2021/06/10 10:48:05;;;;;;;24.45;18.95;;;30.10;93.40;;;;;;5054331;28;20423;-52
2021/06/10 10:50:44;;;;;;;23.45;19.33;;;30.10;92.80;;;;;;5063991;28;20412;-54
2021/06/10 10:53:15;;;;;;;23.45;20.95;;;30.30;92.50;;;;;;5050551;28;20405;-52
2021/06/10 10:55:42;;;;;;;23.15;20.65;;;30.40;92.20;;;;;;5057936;28;20389;-52
2021/06/10 10:58:16;;;;;;;26.63;21.92;;;29.60;92.30;;;;;;5057757;28;20413;-52
2021/06/10 11:01:02;;;;;;;23.13;19.92;;;29.50;93.60;;;;;;5064726;28;20400;-53
2021/06/10 11:03:48;;;;;;;21.63;18.70;;;29.20;95.70;;;;;;5058320;28;20893;-52
2021/06/10 11:06:25;;;;;;;22.23;19.83;;;29.20;94.60;;;;;;5050521;28;20409;-53
2021/06/10 11:09:13;;;;;;;22.85;17.48;;;29.50;95.90;;;;;;5066535;28;20442;-53
2021/06/10 11:11:54;;;;;;;20.63;18.20;;;29.70;93.10;;;;;;5069026;28;20874;-53
2021/06/10 11:14:40;;;;;;;21.90;17.30;;;29.80;92.00;;;;;;5058489;28;20420;-52
2021/06/10 11:17:22;;;;;;;21.73;18.20;;;30.20;93.10;;;;;;5052645;28;20472;-52
2021/06/10 11:19:52;;;;;;;19.20;17.10;;;30.30;93.40;;;;;;5055554;28;20420;-52
2021/06/10 11:22:31;;;;;;;22.25;18.00;;;29.90;94.60;;;;;;5058122;28;20399;-53
2021/06/10 11:24:58;;;;;;;22.50;18.50;;;29.70;94.60;;;;;;5059841;28;20386;-52
2021/06/10 11:27:44;;;;;;;20.73;17.85;;;29.10;94.80;;;;;;5062731;28;20392;-52
2021/06/10 11:30:17;;;;;;;20.83;16.60;;;29.10;95.20;;;;;;5045268;28;20402;-53
2021/06/10 11:33:02;;;;;;;19.52;16.90;;;29.30;96.10;;;;;;5061869;28;20430;-52
2021/06/10 11:35:39;;;;;;;21.85;18.13;;;29.50;95.90;;;;;;5063640;28;20507;-53
2021/06/10 11:38:22;;;;;;;21.50;17.55;;;29.50;94.60;;;;;;5063863;28;20479;-52
2021/06/10 11:40:59;;;;;;;22.52;19.50;;;29.40;95.60;;;;;;5067466;28;20431;-51
2021/06/10 11:43:26;;;;;;;17.38;15.40;;;29.20;97.00;;;;;;5049702;28;20378;-53
2021/06/10 11:46:01;;;;;;;20.65;16.20;;;29.50;94.90;;;;;;5056830;28;20432;-52
2021/06/10 11:48:53;;;;;;;19.40;16.60;;;29.50;94.50;;;;;;5053794;28;20423;-52
2021/06/10 11:51:23;;;;;;;19.05;15.95;;;29.50;95.30;;;;;;5056480;28;20420;-52
2021/06/10 11:53:51;;;;;;;16.38;13.73;;;29.40;93.50;;;;;;5056783;28;20759;-52
2021/06/10 11:56:28;;;;;;;17.15;14.70;;;29.70;92.30;;;;;;5051500;28;20399;-52
2021/06/10 11:58:57;;;;;;;18.60;13.73;;;30.00;93.20;;;;;;5053810;28;20904;-53
2021/06/10 12:01:23;;;;;;;17.50;13.50;;;30.30;91.70;;;;;;5061876;28;20476;-52
2021/06/10 12:03:49;;;;;;;15.60;13.00;;;30.50;91.60;;;;;;5051548;28;20820;-52
2021/06/10 12:06:16;;;;;;;15.00;12.93;;;30.40;90.60;;;;;;5064566;28;20423;-57
2021/06/10 12:08:45;;;;;;;18.80;14.90;;;30.20;91.60;;;;;;5066167;28;20787;-52
2021/06/10 12:11:13;;;;;;;16.37;14.10;;;30.30;93.00;;;;;;5062545;28;20870;-52
2021/06/10 12:13:59;;;;;;;16.48;13.60;;;30.30;92.10;;;;;;5050501;28;20397;-52
2021/06/10 12:16:24;;;;;;;17.52;14.27;;;30.10;92.80;;;;;;5057009;28;20950;-52
2021/06/10 12:18:51;;;;;;;17.17;14.80;;;29.90;92.90;;;;;;5060738;28;20383;-52
2021/06/10 12:21:27;;;;;;;17.27;13.88;;;29.60;92.60;;;;;;5054025;28;20412;-52
2021/06/10 12:23:59;;;;;;;15.93;13.50;;;29.90;91.90;;;;;;5057986;28;20424;-52
2021/06/10 12:26:27;;;;;;;16.08;13.93;;;29.90;91.50;;;;;;5054236;28;20419;-52
2021/06/10 12:28:59;;;;;;;18.15;14.35;;;29.60;94.30;;;;;;5052003;28;20405;-52
2021/06/10 12:31:44;;;;;;;20.90;16.98;;;29.10;99.90;;;;;;5056357;28;20397;-51
2021/06/10 12:34:10;;;;;;;20.65;16.10;;;27.80;99.90;;;;;;5053001;28;20409;-51
2021/06/10 12:36:43;;;;;;;23.95;17.95;;;26.50;99.90;;;;;;5050969;28;20393;-50